Pine Neck, New York
Current Conditions -  °F | °C
As of 1:53 PM on Monday 22 Dec 2014 (Local Time) from KFOK Reporting Station
Overcast Overcast  
Wind Chill: 40°   Ceiling: 4800
Heat Index: 45°   Visibility: 10mi
Dew Point: 39°   Wind: 10mph
Humidity: 80%   Direction: 90°E
Pressure: 30.26"   Gusts: NA
Location:  40.9692°N, 72.306°W
Report Text: KFOK 221853Z 09009KT 10SM FEW013 OVC048 07/04 A3026 RMK AO2 SLP248 T00720039
Loading
Personal Weather Stations






























Interactive Weather Map New forecast layout! Learn more

10-Day Weather Forecast

Advertisements
Track Severe Weather on mobile